createdAt,value
2023-08-09T00:02:15.748Z,3.20
2023-08-09T00:04:45.489Z,2.90
2023-08-09T00:07:13.734Z,3.50
2023-08-09T00:09:42.254Z,3.77
2023-08-09T00:12:10.542Z,3.13
2023-08-09T00:14:39.054Z,3.57
2023-08-09T00:17:07.724Z,3.37
2023-08-09T00:19:36.159Z,3.07
2023-08-09T00:22:05.822Z,3.07
2023-08-09T00:24:35.716Z,3.63
2023-08-09T00:27:04.318Z,3.10
2023-08-09T00:29:33.075Z,3.20
2023-08-09T00:32:02.323Z,3.00
2023-08-09T00:34:30.641Z,3.50
2023-08-09T00:37:02.484Z,3.30
2023-08-09T00:39:32.436Z,2.70
2023-08-09T00:42:03.739Z,2.83
2023-08-09T00:44:32.159Z,3.00
2023-08-09T00:47:01.637Z,3.03
2023-08-09T00:49:31.790Z,3.47
2023-08-09T00:52:02.058Z,3.43
2023-08-09T00:54:40.658Z,3.07
2023-08-09T00:57:13.712Z,2.43
2023-08-09T00:59:48.008Z,2.63
2023-08-09T01:02:16.244Z,2.50
2023-08-09T01:04:46.565Z,2.73
2023-08-09T01:07:24.154Z,2.70
2023-08-09T01:10:05.769Z,2.67
2023-08-09T01:12:40.419Z,3.17
2023-08-09T01:15:17.995Z,3.43
2023-08-09T01:17:50.466Z,3.23
2023-08-09T01:20:24.678Z,3.20
2023-08-09T01:23:02.049Z,2.83
2023-08-09T01:25:32.204Z,3.40
2023-08-09T01:28:05.273Z,3.33
2023-08-09T01:30:35.528Z,2.93
2023-08-09T01:33:07.376Z,3.23
2023-08-09T01:35:46.846Z,2.80
2023-08-09T01:38:23.364Z,2.70
2023-08-09T01:40:55.262Z,2.43
2023-08-09T01:43:25.186Z,2.30
2023-08-09T01:45:54.211Z,2.20
2023-08-09T01:48:22.790Z,2.47
2023-08-09T01:50:51.174Z,2.20
2023-08-09T01:53:19.611Z,3.00
2023-08-09T01:55:47.811Z,2.87
2023-08-09T01:58:17.410Z,2.90
2023-08-09T02:00:45.847Z,3.03
2023-08-09T02:03:16.405Z,2.87
2023-08-09T02:05:44.737Z,3.93
2023-08-09T02:08:15.756Z,2.83
2023-08-09T02:10:43.853Z,3.60
2023-08-09T02:13:16.507Z,2.90
2023-08-09T02:15:47.366Z,3.07
2023-08-09T02:18:15.618Z,2.80
2023-08-09T02:20:44.214Z,2.60
2023-08-09T02:23:14.593Z,3.17
2023-08-09T02:25:43.160Z,3.60
2023-08-09T02:28:14.577Z,3.20
2023-08-09T02:30:47.172Z,3.40
2023-08-09T02:33:16.005Z,3.20
2023-08-09T02:35:54.902Z,2.90
2023-08-09T02:38:28.573Z,3.00
2023-08-09T02:40:58.749Z,2.90
2023-08-09T02:43:27.736Z,3.50
2023-08-09T02:45:57.974Z,3.43
2023-08-09T02:48:28.791Z,3.47
2023-08-09T02:51:02.694Z,3.57
2023-08-09T02:53:36.067Z,3.57
2023-08-09T02:56:04.502Z,3.70
2023-08-09T02:58:33.074Z,3.77
2023-08-09T03:01:06.641Z,3.60
2023-08-09T03:03:34.837Z,3.93
2023-08-09T03:06:03.277Z,3.63
2023-08-09T03:08:33.996Z,3.97
2023-08-09T03:11:02.606Z,3.90
2023-08-09T03:13:33.086Z,4.43
2023-08-09T03:16:03.264Z,4.23
2023-08-09T03:18:33.386Z,4.17
2023-08-09T03:21:03.204Z,3.93
2023-08-09T03:23:31.652Z,4.10
2023-08-09T03:26:02.917Z,3.37
2023-08-09T03:28:32.117Z,4.50
2023-08-09T03:31:03.055Z,4.23
2023-08-09T03:33:33.217Z,4.83
2023-08-09T03:36:03.551Z,4.77
2023-08-09T03:38:31.893Z,4.47
2023-08-09T03:41:00.495Z,4.87
2023-08-09T03:43:29.053Z,4.30
2023-08-09T03:45:58.401Z,4.10
2023-08-09T03:48:29.570Z,4.23
2023-08-09T03:51:12.349Z,4.47
2023-08-09T03:53:41.095Z,4.53
2023-08-09T03:56:09.376Z,4.50
2023-08-09T03:58:42.563Z,4.60
2023-08-09T04:01:11.052Z,4.50
2023-08-09T04:03:41.233Z,4.10
2023-08-09T04:06:13.962Z,4.90
2023-08-09T04:08:44.786Z,4.23
2023-08-09T04:11:15.320Z,5.27
2023-08-09T04:13:43.785Z,4.70
2023-08-09T04:16:12.163Z,4.47
2023-08-09T04:18:41.056Z,4.63
2023-08-09T04:21:14.614Z,3.90
2023-08-09T04:23:49.091Z,4.80
2023-08-09T04:26:17.247Z,4.60
2023-08-09T04:28:48.325Z,4.57
2023-08-09T04:31:19.222Z,4.77
2023-08-09T04:33:50.854Z,4.40
2023-08-09T04:36:23.612Z,4.37
2023-08-09T04:39:00.428Z,5.37
2023-08-09T04:41:32.786Z,4.70
2023-08-09T04:44:03.453Z,4.60
2023-08-09T04:46:32.444Z,3.77
2023-08-09T04:49:07.619Z,4.30
2023-08-09T04:51:38.639Z,3.97
2023-08-09T04:54:07.345Z,4.07
2023-08-09T04:56:35.964Z,4.37
2023-08-09T04:59:07.076Z,3.67
2023-08-09T05:01:35.682Z,3.57
2023-08-09T05:04:04.021Z,3.50
2023-08-09T05:06:36.687Z,3.43
2023-08-09T05:09:05.668Z,3.83
2023-08-09T05:11:37.936Z,3.50
2023-08-09T05:14:08.908Z,3.30
2023-08-09T05:16:37.519Z,3.43
2023-08-09T05:19:06.000Z,3.90
2023-08-09T05:21:37.815Z,3.80
2023-08-09T05:24:06.643Z,3.03
2023-08-09T05:26:35.055Z,3.40
2023-08-09T05:29:06.548Z,3.10
2023-08-09T05:31:37.164Z,3.23
2023-08-09T05:34:11.186Z,3.67
2023-08-09T05:36:40.987Z,3.30
2023-08-09T05:39:09.660Z,3.40
2023-08-09T05:41:38.337Z,3.73
2023-08-09T05:44:09.177Z,3.07
2023-08-09T05:46:37.794Z,3.00
2023-08-09T05:49:12.241Z,2.87
2023-08-09T05:51:41.974Z,3.67
2023-08-09T05:54:16.281Z,3.03
2023-08-09T05:56:47.199Z,2.80
2023-08-09T05:59:15.831Z,3.10
2023-08-09T06:01:44.230Z,3.03
2023-08-09T06:04:12.548Z,3.00
2023-08-09T06:06:42.210Z,3.03
2023-08-09T06:09:12.770Z,2.97
2023-08-09T06:11:42.521Z,3.50
2023-08-09T06:14:14.055Z,3.13
2023-08-09T06:16:48.083Z,3.40
2023-08-09T06:19:16.900Z,2.77
2023-08-09T06:21:46.550Z,3.03
2023-08-09T06:24:14.959Z,2.70
2023-08-09T06:26:46.048Z,2.60
2023-08-09T06:29:14.602Z,2.90
2023-08-09T06:31:45.572Z,2.30
2023-08-09T06:34:13.896Z,2.40
2023-08-09T06:36:44.315Z,2.10
2023-08-09T06:39:14.072Z,2.13
2023-08-09T06:41:42.600Z,1.90
2023-08-09T06:44:13.250Z,2.37
2023-08-09T06:46:46.398Z,2.13
2023-08-09T06:49:14.747Z,2.53
2023-08-09T06:51:48.925Z,2.30
2023-08-09T06:54:18.710Z,2.20
2023-08-09T06:56:49.671Z,2.20
2023-08-09T06:59:18.115Z,2.30
2023-08-09T07:01:50.328Z,1.97
2023-08-09T07:04:18.954Z,1.83
2023-08-09T07:06:49.649Z,1.90
2023-08-09T07:09:20.312Z,2.03
2023-08-09T07:11:48.510Z,2.00
2023-08-09T07:14:16.682Z,2.23
2023-08-09T07:16:47.085Z,2.30
2023-08-09T07:19:15.407Z,2.23
2023-08-09T07:21:46.002Z,1.70
2023-08-09T07:24:14.527Z,2.00
2023-08-09T07:26:49.526Z,2.30
2023-08-09T07:29:17.858Z,2.13
2023-08-09T07:31:46.360Z,1.93
2023-08-09T07:34:15.931Z,1.80
2023-08-09T07:36:46.246Z,1.70
2023-08-09T07:39:14.537Z,1.87
2023-08-09T07:41:43.935Z,1.73
2023-08-09T07:44:13.603Z,1.70
2023-08-09T07:46:41.761Z,1.20
2023-08-09T07:49:10.160Z,1.70
2023-08-09T07:51:38.555Z,1.60
2023-08-09T07:54:07.018Z,1.80
2023-08-09T07:56:35.479Z,2.13
2023-08-09T07:59:04.248Z,1.37
2023-08-09T08:01:34.432Z,1.20
2023-08-09T08:04:06.570Z,1.67
2023-08-09T08:06:34.968Z,1.40
2023-08-09T08:09:03.644Z,1.33
2023-08-09T08:11:31.879Z,1.30
2023-08-09T08:14:01.724Z,1.70
2023-08-09T08:16:30.878Z,1.50
2023-08-09T08:19:00.646Z,1.67
2023-08-09T08:21:28.927Z,1.40
2023-08-09T08:23:58.253Z,1.33
2023-08-09T08:26:27.136Z,2.00
2023-08-09T08:28:55.312Z,1.67
2023-08-09T08:31:23.898Z,1.77
2023-08-09T08:33:52.783Z,1.67
2023-08-09T08:36:30.643Z,1.97
2023-08-09T08:39:00.522Z,1.73
2023-08-09T08:41:30.275Z,2.10
2023-08-09T08:43:58.630Z,1.97
2023-08-09T08:46:29.671Z,2.40
2023-08-09T08:49:02.960Z,1.73
2023-08-09T08:51:33.501Z,1.83
2023-08-09T08:54:01.979Z,1.80
2023-08-09T08:56:33.166Z,2.83
2023-08-09T08:59:05.093Z,1.90
2023-08-09T09:01:35.755Z,2.07
2023-08-09T09:04:04.210Z,1.83
2023-08-09T09:06:34.909Z,1.90
2023-08-09T09:09:15.227Z,2.00
2023-08-09T09:11:45.317Z,2.20
2023-08-09T09:14:14.714Z,1.83
2023-08-09T09:16:44.417Z,1.83
2023-08-09T09:19:14.525Z,1.90
2023-08-09T09:21:44.263Z,2.30
2023-08-09T09:24:13.273Z,2.00
2023-08-09T09:26:41.971Z,2.50
2023-08-09T09:29:12.330Z,2.20
2023-08-09T09:31:42.718Z,2.10
2023-08-09T09:34:11.623Z,1.63
2023-08-09T09:36:51.356Z,1.80
2023-08-09T09:39:20.584Z,1.30
2023-08-09T09:41:50.810Z,2.10
2023-08-09T09:44:23.819Z,1.53
2023-08-09T09:46:55.806Z,1.60
2023-08-09T09:49:26.159Z,1.77
2023-08-09T09:51:57.144Z,1.90
2023-08-09T09:54:26.451Z,2.00
2023-08-09T09:56:55.144Z,2.13
2023-08-09T09:59:23.367Z,1.77
2023-08-09T10:01:52.774Z,2.10
2023-08-09T10:04:22.527Z,2.40
2023-08-09T10:06:51.691Z,1.93
2023-08-09T10:09:24.257Z,1.67
2023-08-09T10:11:56.189Z,1.77
2023-08-09T10:14:27.907Z,1.70
2023-08-09T10:17:02.218Z,1.80
2023-08-09T10:19:40.968Z,1.47
2023-08-09T10:22:12.319Z,1.47
2023-08-09T10:24:48.669Z,1.70
2023-08-09T10:27:17.309Z,1.83
2023-08-09T10:29:45.681Z,1.40
2023-08-09T10:32:14.255Z,1.43
2023-08-09T10:34:45.342Z,1.40
2023-08-09T10:37:24.919Z,1.50
2023-08-09T10:40:17.188Z,1.77
2023-08-09T10:42:48.077Z,1.60
2023-08-09T10:45:17.141Z,1.20
2023-08-09T10:47:45.870Z,1.37
2023-08-09T10:50:20.285Z,1.07
2023-08-09T10:52:50.781Z,1.40
2023-08-09T10:55:38.794Z,1.67
2023-08-09T10:58:07.452Z,1.63
2023-08-09T11:00:43.175Z,1.70
2023-08-09T11:03:13.057Z,1.37
2023-08-09T11:05:41.424Z,1.50
2023-08-09T11:08:17.620Z,1.80
2023-08-09T11:10:49.565Z,1.60
2023-08-09T11:13:20.318Z,1.57
2023-08-09T11:15:49.947Z,1.13
2023-08-09T11:18:18.588Z,1.20
2023-08-09T11:20:47.894Z,2.07
2023-08-09T11:23:16.418Z,1.50
2023-08-09T11:25:45.499Z,2.13
2023-08-09T11:28:17.473Z,1.43
2023-08-09T11:30:47.316Z,0.73
2023-08-09T11:33:15.577Z,1.20
2023-08-09T11:35:47.667Z,1.53
2023-08-09T11:38:20.676Z,1.03
2023-08-09T11:40:53.420Z,0.80
2023-08-09T11:43:24.133Z,1.23
2023-08-09T11:45:55.966Z,1.03
2023-08-09T11:48:57.217Z,0.80
2023-08-09T11:51:25.820Z,1.20
2023-08-09T11:53:56.452Z,0.90
2023-08-09T11:56:25.186Z,1.13
2023-08-09T11:58:57.196Z,1.30
2023-08-09T12:01:39.496Z,1.00
2023-08-09T12:04:10.285Z,1.00
2023-08-09T12:06:41.574Z,1.10
2023-08-09T12:09:33.214Z,0.90
2023-08-09T12:12:05.759Z,1.03
2023-08-09T12:14:36.992Z,1.27
2023-08-09T12:17:06.327Z,1.20
2023-08-09T12:19:34.655Z,1.10
2023-08-09T12:22:05.351Z,1.30
2023-08-09T12:24:36.994Z,1.40
2023-08-09T12:27:06.624Z,1.10
2023-08-09T12:29:37.127Z,1.10
2023-08-09T12:32:06.201Z,1.63
2023-08-09T12:34:34.916Z,1.57
2023-08-09T12:37:06.735Z,1.27
2023-08-09T12:39:36.032Z,1.13
2023-08-09T12:42:04.938Z,1.37
2023-08-09T12:44:33.636Z,1.50
2023-08-09T12:47:06.412Z,1.70
2023-08-09T12:49:34.616Z,1.30
2023-08-09T12:52:04.520Z,1.03
2023-08-09T12:54:33.538Z,1.63
2023-08-09T12:57:00.929Z,1.80
2023-08-09T12:59:29.508Z,1.77
2023-08-09T13:01:57.818Z,1.50
2023-08-09T13:04:27.391Z,2.13
2023-08-09T13:06:56.521Z,1.23
2023-08-09T13:09:24.829Z,1.87
2023-08-09T13:12:05.722Z,1.27
2023-08-09T13:14:34.122Z,1.27
2023-08-09T13:17:02.225Z,1.40
2023-08-09T13:19:36.930Z,1.10
2023-08-09T13:22:05.651Z,1.00
2023-08-09T13:24:34.580Z,1.63
2023-08-09T13:27:05.806Z,1.50
2023-08-09T13:29:34.146Z,1.30
2023-08-09T13:32:03.238Z,1.63
2023-08-09T13:34:33.376Z,1.00
2023-08-09T13:37:01.931Z,1.40
2023-08-09T13:39:31.656Z,1.40
2023-08-09T13:42:00.918Z,1.30
2023-08-09T13:44:29.893Z,1.03
2023-08-09T13:46:58.125Z,1.00
2023-08-09T13:49:26.817Z,1.10
2023-08-09T13:51:56.591Z,1.80
2023-08-09T13:54:24.779Z,1.77
2023-08-09T13:56:52.959Z,1.13
2023-08-09T13:59:21.035Z,1.10
2023-08-09T14:01:49.327Z,1.50
2023-08-09T14:04:17.805Z,1.67
2023-08-09T14:06:47.734Z,1.33
2023-08-09T14:09:18.261Z,1.40
2023-08-09T14:11:46.695Z,1.60
2023-08-09T14:14:15.070Z,0.90
2023-08-09T14:16:43.570Z,1.00
2023-08-09T14:19:14.305Z,0.83
2023-08-09T14:21:42.497Z,0.93
2023-08-09T14:24:10.734Z,1.40
2023-08-09T14:26:43.243Z,2.47
2023-08-09T14:29:11.558Z,2.47
2023-08-09T14:31:39.988Z,1.80
2023-08-09T14:34:08.535Z,1.40
2023-08-09T14:36:36.773Z,2.10
2023-08-09T14:39:05.427Z,2.07
2023-08-09T14:41:33.767Z,1.77
2023-08-09T14:44:04.436Z,2.27
2023-08-09T14:46:32.873Z,1.53
2023-08-09T14:51:35.383Z,2.60
2023-08-09T14:54:03.858Z,1.87
2023-08-09T14:56:35.591Z,2.40
2023-08-09T14:59:06.941Z,3.00
2023-08-09T15:01:35.307Z,1.40
2023-08-09T15:04:10.946Z,2.80
2023-08-09T15:06:41.244Z,2.83
2023-08-09T15:09:11.747Z,2.77
2023-08-09T15:11:39.949Z,2.40
2023-08-09T15:14:12.207Z,2.03
2023-08-09T15:16:40.561Z,2.63
2023-08-09T15:19:08.804Z,1.97
2023-08-09T15:21:36.964Z,2.20
2023-08-09T15:24:06.771Z,1.93
2023-08-09T15:26:35.181Z,1.70
2023-08-09T15:29:04.412Z,1.77
2023-08-09T15:31:34.484Z,1.87
2023-08-09T15:34:05.925Z,2.07
2023-08-09T15:36:34.413Z,2.13
2023-08-09T15:39:05.689Z,1.60
2023-08-09T15:41:34.018Z,2.03
2023-08-09T15:44:02.724Z,1.87
2023-08-09T15:49:07.998Z,1.87
2023-08-09T15:51:37.145Z,1.77
2023-08-09T15:54:09.249Z,2.13
2023-08-09T15:56:39.970Z,2.67
2023-08-09T15:59:08.590Z,2.57
2023-08-09T16:01:37.318Z,1.83
2023-08-09T16:04:11.719Z,1.60
2023-08-09T16:06:40.294Z,2.20
2023-08-09T16:09:17.027Z,1.80
2023-08-09T16:11:46.339Z,2.13
2023-08-09T16:14:20.115Z,1.70
2023-08-09T16:16:49.771Z,1.50
2023-08-09T16:19:28.417Z,2.00
2023-08-09T16:22:05.598Z,1.80
2023-08-09T16:24:37.197Z,2.00
2023-08-09T16:27:18.992Z,2.00
2023-08-09T16:29:47.209Z,2.20
2023-08-09T16:32:15.838Z,2.13
2023-08-09T16:34:45.804Z,2.70
2023-08-09T16:37:14.785Z,2.40
2023-08-09T16:39:43.125Z,2.10
2023-08-09T16:42:12.808Z,1.80
2023-08-09T16:44:41.597Z,2.70
2023-08-09T16:47:10.114Z,2.47
2023-08-09T16:49:38.726Z,3.03
2023-08-09T16:52:09.855Z,2.27
2023-08-09T16:54:38.678Z,2.67
2023-08-09T16:57:07.436Z,2.20
2023-08-09T16:59:36.117Z,2.93
2023-08-09T17:02:05.420Z,2.20
2023-08-09T17:04:34.058Z,2.63
2023-08-09T17:07:02.568Z,2.03
2023-08-09T17:09:32.427Z,2.00
2023-08-09T17:12:00.920Z,1.73
2023-08-09T17:14:29.169Z,2.17
2023-08-09T17:16:58.282Z,1.83
2023-08-09T17:19:27.178Z,2.40
2023-08-09T17:21:55.630Z,2.63
2023-08-09T17:24:24.556Z,2.80
2023-08-09T17:26:56.846Z,2.43
2023-08-09T17:29:25.320Z,2.03
2023-08-09T17:31:54.709Z,2.47
2023-08-09T17:34:24.175Z,1.77
2023-08-09T17:36:54.897Z,2.60
2023-08-09T17:39:23.952Z,2.73
2023-08-09T17:41:54.429Z,2.23
2023-08-09T17:44:22.672Z,1.90
2023-08-09T17:46:51.092Z,2.70
2023-08-09T17:49:19.461Z,3.97
2023-08-09T17:51:47.711Z,2.00
2023-08-09T17:54:16.125Z,2.70
2023-08-09T17:56:44.701Z,2.07
2023-08-09T17:59:15.138Z,2.20
2023-08-09T18:01:44.042Z,2.80
2023-08-09T18:04:13.262Z,2.30
2023-08-09T18:06:41.738Z,2.43
2023-08-09T18:09:10.783Z,2.27
2023-08-09T18:11:40.100Z,2.23
2023-08-09T18:14:10.041Z,2.83
2023-08-09T18:16:39.995Z,3.63
2023-08-09T18:19:08.358Z,3.57
2023-08-09T18:21:36.618Z,2.20
2023-08-09T18:24:05.072Z,2.87
2023-08-09T18:26:33.727Z,2.33
2023-08-09T18:29:02.173Z,3.73
2023-08-09T18:31:30.787Z,3.03
2023-08-09T18:34:02.467Z,2.30
2023-08-09T18:36:31.651Z,2.90
2023-08-09T18:38:59.877Z,2.20
2023-08-09T18:41:28.439Z,3.20
2023-08-09T18:43:56.737Z,2.30
2023-08-09T18:46:24.986Z,3.90
2023-08-09T18:48:53.206Z,3.10
2023-08-09T18:51:23.011Z,3.40
2023-08-09T18:53:51.946Z,3.60
2023-08-09T18:56:20.258Z,4.63
2023-08-09T18:58:48.577Z,3.07
2023-08-09T19:01:16.955Z,3.47
2023-08-09T19:03:45.803Z,3.27
2023-08-09T19:06:14.251Z,3.70
2023-08-09T19:08:45.161Z,2.60
2023-08-09T19:11:13.577Z,3.43
2023-08-09T19:13:41.891Z,2.67
2023-08-09T19:16:10.131Z,2.70
2023-08-09T19:18:38.713Z,2.97
2023-08-09T19:21:06.983Z,2.67
2023-08-09T19:23:35.266Z,2.93
2023-08-09T19:26:05.395Z,3.27
2023-08-09T19:28:33.775Z,2.40
2023-08-09T19:31:04.040Z,2.47
2023-08-09T19:33:35.191Z,3.67
2023-08-09T19:36:03.699Z,3.80
2023-08-09T19:38:31.896Z,2.60
2023-08-09T19:41:00.612Z,2.20
2023-08-09T19:43:30.226Z,2.73
2023-08-09T19:45:58.696Z,3.33
2023-08-09T19:48:27.773Z,2.57
2023-08-09T19:50:56.124Z,2.53
2023-08-09T19:53:24.957Z,2.73
2023-08-09T19:55:53.971Z,1.83
2023-08-09T19:58:23.093Z,2.93
2023-08-09T20:00:56.466Z,3.57
2023-08-09T20:03:24.780Z,2.83
2023-08-09T20:05:52.991Z,2.83
2023-08-09T20:08:21.198Z,2.40
2023-08-09T20:10:49.497Z,2.87
2023-08-09T20:13:19.205Z,2.83
2023-08-09T20:15:47.535Z,4.40
2023-08-09T20:18:17.245Z,2.50
2023-08-09T20:20:45.387Z,3.23
2023-08-09T20:23:16.800Z,2.67
2023-08-09T20:25:45.065Z,2.50
2023-08-09T20:28:13.429Z,2.20
2023-08-09T20:30:42.267Z,2.27
2023-08-09T20:33:16.790Z,2.50
2023-08-09T20:35:45.393Z,2.63
2023-08-09T20:38:14.201Z,2.37
2023-08-09T20:40:42.516Z,2.30
2023-08-09T20:43:12.164Z,2.83
2023-08-09T20:45:40.541Z,2.87
2023-08-09T20:48:09.168Z,1.97
2023-08-09T20:50:38.952Z,2.77
2023-08-09T20:53:07.271Z,3.13
2023-08-09T20:55:35.539Z,2.93
2023-08-09T20:58:05.334Z,2.80
2023-08-09T21:00:33.587Z,3.50
2023-08-09T21:03:01.871Z,2.90
2023-08-09T21:05:30.326Z,2.93
2023-08-09T21:08:00.166Z,2.03
2023-08-09T21:10:28.320Z,2.50
2023-08-09T21:12:56.742Z,3.57
2023-08-09T21:15:25.113Z,2.27
2023-08-09T21:17:53.401Z,2.73
2023-08-09T21:20:21.718Z,2.03
2023-08-09T21:22:57.245Z,2.30
2023-08-09T21:30:27.165Z,2.67
2023-08-09T21:32:55.589Z,2.80
2023-08-09T21:35:24.523Z,2.53
2023-08-09T21:37:52.974Z,2.60
2023-08-09T21:40:21.378Z,2.57
2023-08-09T21:42:50.975Z,2.53
2023-08-09T21:45:19.133Z,2.33
2023-08-09T21:47:47.729Z,2.10
2023-08-09T21:50:16.283Z,2.33
2023-08-09T21:52:44.565Z,2.20
2023-08-09T21:55:12.820Z,2.77
2023-08-09T21:57:43.455Z,2.13
2023-08-09T22:00:14.513Z,2.40
2023-08-09T22:02:43.176Z,2.43
2023-08-09T22:05:11.592Z,2.03
2023-08-09T22:07:40.130Z,2.47
2023-08-09T22:10:09.620Z,2.80
2023-08-09T22:12:37.719Z,2.87
2023-08-09T22:15:06.711Z,1.90
2023-08-09T22:17:36.748Z,2.10
2023-08-09T22:20:07.138Z,2.40
2023-08-09T22:22:35.651Z,1.83
2023-08-09T22:25:04.308Z,2.37
2023-08-09T22:27:33.078Z,2.30
2023-08-09T22:30:01.582Z,2.47
2023-08-09T22:32:29.903Z,2.80
2023-08-09T22:34:59.653Z,2.40
2023-08-09T22:37:27.975Z,2.40
2023-08-09T22:39:56.337Z,1.90
2023-08-09T22:42:24.605Z,1.60
2023-08-09T22:44:52.876Z,1.87
2023-08-09T22:47:21.126Z,2.03
2023-08-09T22:49:49.669Z,1.60
2023-08-09T22:52:20.379Z,1.93
2023-08-09T22:54:48.885Z,1.93
2023-08-09T22:57:17.047Z,1.30
2023-08-09T22:59:45.247Z,1.73
2023-08-09T23:02:13.729Z,1.70
2023-08-09T23:04:42.072Z,1.30
2023-08-09T23:07:10.280Z,1.27
2023-08-09T23:09:40.356Z,1.80
2023-08-09T23:12:09.714Z,1.30
2023-08-09T23:14:40.034Z,1.00
2023-08-09T23:17:08.639Z,1.73
2023-08-09T23:19:36.825Z,1.57
2023-08-09T23:22:05.421Z,0.90
2023-08-09T23:24:33.937Z,1.30
2023-08-09T23:27:03.434Z,1.97
2023-08-09T23:29:31.610Z,1.40
2023-08-09T23:31:59.978Z,1.10
2023-08-09T23:34:28.310Z,1.10
2023-08-09T23:36:56.609Z,1.20
2023-08-09T23:39:25.067Z,1.80
2023-08-09T23:41:53.249Z,2.17
2023-08-09T23:44:22.956Z,1.20
2023-08-09T23:46:51.323Z,1.40
2023-08-09T23:49:19.569Z,1.33
2023-08-09T23:51:47.777Z,1.50
2023-08-09T23:54:15.987Z,1.20
2023-08-09T23:56:44.316Z,1.30
2023-08-09T23:59:13.792Z,1.30
